Portada
METAR-TAF:

METAR-TAF

Aeroports :

Sukhothai, Tailàndia

latitud: 17-14-16N, longitud: 099-49-05E, altitud: 55 m

Observació

L'informe es va fer fa 2 hores i 5 minuts, a les 10:00 UTC
Vent 5 kt del Sud-Est
Temperatura 35°C
Humitat 34%
Pressió 1011 hPa
Visibilitat 10 km o més
sense núvols per sota de 1500 mi sense presència de cumulonimbus.

METAR: VTPO 171000Z 14005KT CAVOK 35/17 Q1011 NOSIG

Hora: 19:05 (12:05 UTC)

Pronòstic

L'informe es va fer fa 1 hora i 5 minuts, a les 11:00 UTC
Pronòstic vàlid del 17 a les 12 UTC al 18 a les 12 UTC
Vent 5 kt del Sud/Sud-Est
Visibilitat 10 km o més
sense núvols per sota de 1500 mi sense presència de cumulonimbus.
Evolucionant progressivament
l' 17 a les 21 UTC al 17 a les 23 UTC
Visibilitat: 2000 m
boirina
Evolucionant progressivament
l' 18 a les 04 UTC al 18 a les 06 UTC
Visibilitat: 9000 m

TAF: VTPO 171100Z 1712/1812 16005KT CAVOK BECMG 1721/1723 2000 BR BECMG 1804/1806 9000 NSC

Observacions i pronòstics meteorològics de més de 4000 aeroports (METAR i TAF).

Les estacions disponibles són els punts grocs i vermells al mapa.

Posi el ratolí al punt desitjat per veure el nom de l'estació.

Feu clic per veure les observacions i els pronòstics meteorològics.

Per canviar el mapa: feu clic els botons verds amb una creu de color negre per apropar; al botó verd amb un guió per allunyar la imatge; o en les fletxes verdes per a mapes adjacents.


METAR-TAF: